Search for airport 
image banner adimage banner adimage banner ad
image banner ad

21CL - La County Sheriff Lancaster Stn

Located in Lancaster, United States

ICAO - 21CL, IATA -

Data provided by Airmate  

General information

Coordinates: N34°42'1" W118°8'17"
Elevation is 2367 feet MSL.
Magnetic variation is 14° East
View others Airports in California

Operational data

Special qualification required
Current time UTC:
Current local time:
Weather at : KWJF - General Wm J Fox Airfield ( 9 km )
METAR: KWJF 210956Z AUTO 24012KT 10SM CLR 24/06 A2990 RMK AO2 SLP098 T02440061
TAF: KWJF 210551Z 2106/2206 25012KT P6SM SKC FM211700 24020G26KT P6SM SKC FM212000 23024G34KT P6SM SKC FM220200 24015G22KT P6SM SKC FM220400 25012KT P6SM SKC
View NOTAMs / SUP AIP / TFR affecting this airport [VIEW]
Communications frequencies: [VIEW]

Runways:

Airport contact information

Address: Lancaster United States

Satellite view of 21CL